createdAt,value
2018-07-22T00:00:13.998Z,95372.00
2018-07-22T00:00:46.003Z,95370.00
2018-07-22T00:01:18.032Z,95373.00
2018-07-22T00:01:50.044Z,95370.00
2018-07-22T00:02:22.059Z,95370.00
2018-07-22T00:02:54.079Z,95371.00
2018-07-22T00:03:26.104Z,95369.00
2018-07-22T00:03:58.138Z,95376.00
2018-07-22T00:04:30.152Z,95376.00
2018-07-22T00:05:02.178Z,95376.00
2018-07-22T00:05:34.252Z,95374.00
2018-07-22T00:06:06.266Z,95373.00
2018-07-22T00:06:38.291Z,95374.00
2018-07-22T00:07:10.305Z,95374.00
2018-07-22T00:07:42.327Z,95374.00
2018-07-22T00:08:14.343Z,95374.00
2018-07-22T00:08:46.359Z,95372.00
2018-07-22T00:09:18.383Z,95366.00
2018-07-22T00:09:50.405Z,95369.00
2018-07-22T00:10:22.421Z,95371.00
2018-07-22T00:10:54.439Z,95367.00
2018-07-22T00:11:26.458Z,95369.00
2018-07-22T00:11:58.467Z,95369.00
2018-07-22T00:12:30.484Z,95367.00
2018-07-22T00:13:02.514Z,95368.00
2018-07-22T00:13:34.527Z,95366.00
2018-07-22T00:14:06.555Z,95371.00
2018-07-22T00:14:38.549Z,95364.00
2018-07-22T00:15:10.558Z,95366.00
2018-07-22T00:15:42.596Z,95365.00
2018-07-22T00:16:14.660Z,95368.00
2018-07-22T00:16:46.670Z,95369.00
2018-07-22T00:17:18.713Z,95370.00
2018-07-22T00:17:50.742Z,95372.00
2018-07-22T00:18:22.752Z,95369.00
2018-07-22T00:18:54.766Z,95370.00
2018-07-22T00:19:26.816Z,95367.00
2018-07-22T00:19:58.836Z,95369.00
2018-07-22T00:20:30.848Z,95365.00
2018-07-22T00:21:02.856Z,95365.00
2018-07-22T00:21:34.873Z,95368.00
2018-07-22T00:22:06.878Z,95366.00
2018-07-22T00:22:38.899Z,95363.00
2018-07-22T00:23:10.917Z,95361.00
2018-07-22T00:23:42.975Z,95361.00
2018-07-22T00:24:14.983Z,95361.00
2018-07-22T00:24:47.004Z,95366.00
2018-07-22T00:25:19.026Z,95367.00
2018-07-22T00:25:51.030Z,95362.00
2018-07-22T00:26:23.049Z,95362.00
2018-07-22T00:26:55.071Z,95363.00
2018-07-22T00:27:27.098Z,95363.00
2018-07-22T00:27:59.107Z,95357.00
2018-07-22T00:28:31.122Z,95363.00
2018-07-22T00:29:03.139Z,95356.00
2018-07-22T00:29:35.151Z,95363.00
2018-07-22T00:30:07.184Z,95363.00
2018-07-22T00:30:39.191Z,95357.00
2018-07-22T00:31:11.207Z,95360.00
2018-07-22T00:31:43.312Z,95359.00
2018-07-22T00:32:15.325Z,95364.00
2018-07-22T00:32:47.360Z,95359.00
2018-07-22T00:33:19.374Z,95356.00
2018-07-22T00:33:51.383Z,95357.00
2018-07-22T00:34:23.386Z,95358.00
2018-07-22T00:34:55.439Z,95357.00
2018-07-22T00:35:27.443Z,95358.00
2018-07-22T00:35:59.476Z,95357.00
2018-07-22T00:36:31.492Z,95359.00
2018-07-22T00:37:03.498Z,95358.00
2018-07-22T00:37:35.503Z,95360.00
2018-07-22T00:38:07.527Z,95355.00
2018-07-22T00:38:39.550Z,95357.00
2018-07-22T00:39:11.587Z,95357.00
2018-07-22T00:39:43.614Z,95356.00
2018-07-22T00:40:15.627Z,95353.00
2018-07-22T00:40:47.670Z,95352.00
2018-07-22T00:41:19.734Z,95352.00
2018-07-22T00:41:51.745Z,95352.00
2018-07-22T00:42:23.774Z,95354.00
2018-07-22T00:42:55.785Z,95353.00
2018-07-22T00:43:27.794Z,95353.00
2018-07-22T00:43:59.802Z,95352.00
2018-07-22T00:44:31.842Z,95352.00
2018-07-22T00:45:03.882Z,95350.00
2018-07-22T00:45:35.889Z,95349.00
2018-07-22T00:46:07.891Z,95346.00
2018-07-22T00:46:39.902Z,95348.00
2018-07-22T00:47:11.922Z,95352.00
2018-07-22T00:47:43.954Z,95348.00
2018-07-22T00:48:15.955Z,95348.00
2018-07-22T00:48:48.365Z,95348.00
2018-07-22T00:49:20.250Z,95349.00
2018-07-22T00:49:52.272Z,95349.00
2018-07-22T00:50:24.289Z,95350.00
2018-07-22T00:50:56.357Z,95350.00
2018-07-22T00:51:28.387Z,95344.00
2018-07-22T00:52:00.414Z,95350.00
2018-07-22T00:52:32.435Z,95349.00
2018-07-22T00:53:04.454Z,95346.00
2018-07-22T00:53:36.469Z,95348.00
2018-07-22T00:54:08.487Z,95344.00
2018-07-22T00:54:40.503Z,95349.00
2018-07-22T00:55:12.571Z,95347.00
2018-07-22T00:55:44.600Z,95346.00
2018-07-22T00:56:16.610Z,95348.00
2018-07-22T00:56:48.639Z,95347.00
2018-07-22T00:57:20.666Z,95346.00
2018-07-22T00:57:52.695Z,95349.00
2018-07-22T00:58:24.713Z,95350.00
2018-07-22T00:58:56.728Z,95345.00
2018-07-22T00:59:28.754Z,95349.00
2018-07-22T01:00:00.879Z,95350.00
2018-07-22T01:00:32.818Z,95347.00
2018-07-22T01:01:04.830Z,95349.00
2018-07-22T01:01:36.863Z,95349.00
2018-07-22T01:02:08.885Z,95343.00
2018-07-22T01:02:40.910Z,95348.00
2018-07-22T01:03:12.919Z,95348.00
2018-07-22T01:03:44.935Z,95347.00
2018-07-22T01:04:16.972Z,95349.00
2018-07-22T01:04:48.987Z,95349.00
2018-07-22T01:05:21.024Z,95349.00
2018-07-22T01:05:53.055Z,95347.00
2018-07-22T01:06:25.076Z,95346.00
2018-07-22T01:06:57.080Z,95349.00
2018-07-22T01:07:29.117Z,95346.00
2018-07-22T01:08:01.164Z,95345.00
2018-07-22T01:08:33.181Z,95344.00
2018-07-22T01:09:05.184Z,95344.00
2018-07-22T01:09:37.222Z,95340.00
2018-07-22T01:10:09.283Z,95345.00
2018-07-22T01:10:41.401Z,95344.00
2018-07-22T01:11:13.807Z,95344.00
2018-07-22T01:11:45.721Z,95344.00
2018-07-22T01:12:17.736Z,95339.00
2018-07-22T01:12:49.755Z,95341.00
2018-07-22T01:13:21.773Z,95336.00
2018-07-22T01:13:53.797Z,95343.00
2018-07-22T01:14:25.827Z,95339.00
2018-07-22T01:14:57.842Z,95338.00
2018-07-22T01:15:29.851Z,95338.00
2018-07-22T01:16:01.880Z,95338.00
2018-07-22T01:16:33.898Z,95337.00
2018-07-22T01:17:05.933Z,95342.00
2018-07-22T01:17:37.946Z,95337.00
2018-07-22T01:18:09.945Z,95337.00
2018-07-22T01:18:41.964Z,95335.00
2018-07-22T01:19:14.008Z,95336.00
2018-07-22T01:19:46.033Z,95337.00
2018-07-22T01:20:18.096Z,95335.00
2018-07-22T01:20:50.064Z,95335.00
2018-07-22T01:21:22.088Z,95334.00
2018-07-22T01:22:32.421Z,95331.00
2018-07-22T01:23:04.391Z,95331.00
2018-07-22T01:23:36.410Z,95335.00
2018-07-22T01:24:08.423Z,95332.00
2018-07-22T01:24:40.451Z,95334.00
2018-07-22T01:25:12.473Z,95333.00
2018-07-22T01:25:44.491Z,95330.00
2018-07-22T01:26:16.509Z,95332.00
2018-07-22T01:26:48.522Z,95331.00
2018-07-22T01:27:20.543Z,95330.00
2018-07-22T01:27:52.558Z,95327.00
2018-07-22T01:28:24.579Z,95331.00
2018-07-22T01:28:56.581Z,95331.00
2018-07-22T01:29:28.716Z,95325.00
2018-07-22T01:30:00.731Z,95327.00
2018-07-22T01:30:32.767Z,95329.00
2018-07-22T01:31:04.789Z,95327.00
2018-07-22T01:31:36.791Z,95326.00
2018-07-22T01:32:08.824Z,95327.00
2018-07-22T01:32:40.827Z,95328.00
2018-07-22T01:33:12.842Z,95329.00
2018-07-22T01:33:44.867Z,95328.00
2018-07-22T01:34:16.879Z,95323.00
2018-07-22T01:34:48.883Z,95323.00
2018-07-22T01:35:20.906Z,95322.00
2018-07-22T01:35:52.943Z,95322.00
2018-07-22T01:36:24.955Z,95321.00
2018-07-22T01:36:56.991Z,95322.00
2018-07-22T01:37:29.008Z,95318.00
2018-07-22T01:38:01.039Z,95322.00
2018-07-22T01:38:33.055Z,95322.00
2018-07-22T01:39:05.067Z,95321.00
2018-07-22T01:39:37.083Z,95324.00
2018-07-22T01:40:09.117Z,95320.00
2018-07-22T01:40:41.138Z,95321.00
2018-07-22T01:41:13.169Z,95319.00
2018-07-22T01:41:45.178Z,95318.00
2018-07-22T01:42:17.207Z,95326.00
2018-07-22T01:42:49.210Z,95320.00
2018-07-22T01:43:21.676Z,95318.00
2018-07-22T01:43:53.509Z,95321.00
2018-07-22T01:44:25.515Z,95321.00
2018-07-22T01:44:57.547Z,95322.00
2018-07-22T01:45:29.567Z,95321.00
2018-07-22T01:46:01.597Z,95321.00
2018-07-22T01:46:33.608Z,95319.00
2018-07-22T01:47:05.614Z,95321.00
2018-07-22T01:47:37.637Z,95317.00
2018-07-22T01:48:09.653Z,95322.00
2018-07-22T01:48:41.671Z,95320.00
2018-07-22T01:49:13.805Z,95323.00
2018-07-22T01:49:45.790Z,95322.00
2018-07-22T01:50:17.800Z,95321.00
2018-07-22T01:50:49.836Z,95321.00
2018-07-22T01:51:21.868Z,95319.00
2018-07-22T01:51:53.879Z,95322.00
2018-07-22T01:52:25.900Z,95324.00
2018-07-22T01:52:57.929Z,95324.00
2018-07-22T01:53:29.938Z,95322.00
2018-07-22T01:54:01.955Z,95319.00
2018-07-22T01:54:33.967Z,95321.00
2018-07-22T01:55:05.982Z,95320.00
2018-07-22T01:55:38.025Z,95322.00
2018-07-22T01:56:10.058Z,95323.00
2018-07-22T01:56:42.079Z,95325.00
2018-07-22T01:57:14.098Z,95322.00
2018-07-22T01:57:46.130Z,95323.00
2018-07-22T01:58:18.152Z,95325.00
2018-07-22T01:58:50.159Z,95321.00
2018-07-22T01:59:22.162Z,95320.00
2018-07-22T01:59:54.193Z,95327.00
2018-07-22T02:00:26.204Z,95323.00
2018-07-22T02:00:58.219Z,95324.00
2018-07-22T02:01:30.247Z,95324.00
2018-07-22T02:02:02.255Z,95322.00
2018-07-22T02:02:34.277Z,95324.00
2018-07-22T02:03:06.290Z,95325.00
2018-07-22T02:03:38.310Z,95328.00
2018-07-22T02:04:10.311Z,95329.00
2018-07-22T02:04:42.340Z,95325.00
2018-07-22T02:05:14.353Z,95329.00
2018-07-22T02:05:46.368Z,95326.00
2018-07-22T02:06:18.379Z,95325.00
2018-07-22T02:06:50.401Z,95324.00
2018-07-22T02:07:22.423Z,95325.00
2018-07-22T02:07:54.485Z,95325.00
2018-07-22T02:08:26.466Z,95323.00
2018-07-22T02:08:58.997Z,95324.00
2018-07-22T02:09:30.994Z,95326.00
2018-07-22T02:10:03.027Z,95326.00
2018-07-22T02:10:35.051Z,95323.00
2018-07-22T02:11:07.054Z,95326.00
2018-07-22T02:11:39.076Z,95322.00
2018-07-22T02:12:11.102Z,95323.00
2018-07-22T02:12:43.099Z,95322.00
2018-07-22T02:13:15.135Z,95324.00
2018-07-22T02:13:47.166Z,95327.00
2018-07-22T02:14:19.563Z,95326.00
2018-07-22T02:14:51.458Z,95325.00
2018-07-22T02:15:23.470Z,95325.00
2018-07-22T02:15:55.481Z,95327.00
2018-07-22T02:16:27.502Z,95326.00
2018-07-22T02:16:59.534Z,95328.00
2018-07-22T02:17:31.552Z,95328.00
2018-07-22T02:18:03.574Z,95329.00
2018-07-22T02:18:35.588Z,95326.00
2018-07-22T02:19:07.612Z,95324.00
2018-07-22T02:19:39.634Z,95328.00
2018-07-22T02:20:11.650Z,95330.00
2018-07-22T02:20:43.714Z,95324.00
2018-07-22T02:21:15.739Z,95324.00
2018-07-22T02:21:47.754Z,95325.00
2018-07-22T02:22:19.837Z,95320.00
2018-07-22T02:22:51.877Z,95322.00
2018-07-22T02:23:23.879Z,95326.00
2018-07-22T02:23:55.891Z,95323.00
2018-07-22T02:24:27.910Z,95327.00
2018-07-22T02:24:59.916Z,95322.00
2018-07-22T02:25:31.931Z,95324.00
2018-07-22T02:26:03.970Z,95323.00
2018-07-22T02:26:35.981Z,95326.00
2018-07-22T02:27:07.998Z,95326.00
2018-07-22T02:27:40.019Z,95326.00
2018-07-22T02:28:12.040Z,95323.00
2018-07-22T02:28:44.068Z,95323.00
2018-07-22T02:29:16.079Z,95321.00
2018-07-22T02:29:48.137Z,95324.00
2018-07-22T02:30:20.157Z,95315.00
2018-07-22T02:30:52.179Z,95317.00
2018-07-22T02:31:24.210Z,95318.00
2018-07-22T02:31:56.228Z,95320.00
2018-07-22T02:32:28.249Z,95322.00
2018-07-22T02:33:00.271Z,95319.00
2018-07-22T02:33:32.295Z,95319.00
2018-07-22T02:34:04.332Z,95319.00
2018-07-22T02:34:36.375Z,95321.00
2018-07-22T02:35:08.374Z,95322.00
2018-07-22T02:35:40.404Z,95320.00
2018-07-22T02:36:12.471Z,95323.00
2018-07-22T02:36:44.517Z,95322.00
2018-07-22T02:37:16.525Z,95320.00
2018-07-22T02:37:48.549Z,95319.00
2018-07-22T02:38:20.570Z,95317.00
2018-07-22T02:38:52.590Z,95319.00
2018-07-22T02:39:24.602Z,95318.00
2018-07-22T02:39:56.660Z,95316.00
2018-07-22T02:40:28.674Z,95319.00
2018-07-22T02:41:00.690Z,95321.00
2018-07-22T02:41:32.721Z,95318.00
2018-07-22T02:42:04.736Z,95317.00
2018-07-22T02:42:36.735Z,95316.00
2018-07-22T02:43:08.751Z,95317.00
2018-07-22T02:43:40.787Z,95319.00
2018-07-22T02:44:12.791Z,95317.00
2018-07-22T02:44:44.805Z,95316.00
2018-07-22T02:45:16.818Z,95316.00
2018-07-22T02:45:48.843Z,95315.00
2018-07-22T02:46:20.898Z,95317.00
2018-07-22T02:46:52.915Z,95318.00
2018-07-22T02:47:24.925Z,95313.00
2018-07-22T02:47:56.928Z,95319.00
2018-07-22T02:48:28.941Z,95323.00
2018-07-22T02:49:00.945Z,95320.00
2018-07-22T02:49:33.368Z,95320.00
2018-07-22T02:50:05.257Z,95318.00
2018-07-22T02:50:37.385Z,95318.00
2018-07-22T02:51:09.390Z,95318.00
2018-07-22T02:51:41.413Z,95322.00
2018-07-22T02:52:13.435Z,95322.00
2018-07-22T02:52:45.448Z,95323.00
2018-07-22T02:53:17.484Z,95321.00
2018-07-22T02:53:49.605Z,95318.00
2018-07-22T02:54:21.640Z,95322.00
2018-07-22T02:54:53.699Z,95320.00
2018-07-22T02:55:25.728Z,95319.00
2018-07-22T02:55:57.743Z,95319.00
2018-07-22T02:56:29.761Z,95320.00
2018-07-22T02:57:01.784Z,95322.00
2018-07-22T02:57:33.792Z,95318.00
2018-07-22T02:58:05.811Z,95321.00
2018-07-22T02:58:37.818Z,95321.00
2018-07-22T02:59:09.829Z,95318.00
2018-07-22T02:59:41.844Z,95322.00
2018-07-22T03:00:13.850Z,95320.00
2018-07-22T03:00:45.879Z,95321.00
2018-07-22T03:01:17.890Z,95321.00
2018-07-22T03:01:49.916Z,95321.00
2018-07-22T03:02:21.932Z,95325.00
2018-07-22T03:02:53.955Z,95319.00
2018-07-22T03:03:26.000Z,95321.00
2018-07-22T03:03:57.994Z,95317.00
2018-07-22T03:04:30.016Z,95316.00
2018-07-22T03:05:02.028Z,95318.00
2018-07-22T03:05:34.045Z,95318.00
2018-07-22T03:06:06.064Z,95316.00
2018-07-22T03:06:38.104Z,95318.00
2018-07-22T03:07:10.105Z,95317.00
2018-07-22T03:07:42.122Z,95318.00
2018-07-22T03:08:14.145Z,95320.00
2018-07-22T03:08:46.160Z,95317.00
2018-07-22T03:09:18.166Z,95319.00
2018-07-22T03:09:50.615Z,95322.00
2018-07-22T03:10:22.514Z,95320.00
2018-07-22T03:10:54.527Z,95318.00
2018-07-22T03:11:26.952Z,95318.00
2018-07-22T03:11:58.834Z,95317.00
2018-07-22T03:12:30.844Z,95317.00
2018-07-22T03:13:02.871Z,95318.00
2018-07-22T03:13:35.480Z,95316.00
2018-07-22T03:14:07.493Z,95318.00
2018-07-22T03:14:39.518Z,95316.00
2018-07-22T03:15:11.554Z,95311.00
2018-07-22T03:15:43.588Z,95314.00
2018-07-22T03:16:15.599Z,95315.00
2018-07-22T03:16:47.620Z,95313.00
2018-07-22T03:17:19.640Z,95315.00
2018-07-22T03:17:51.671Z,95316.00
2018-07-22T03:18:23.681Z,95318.00
2018-07-22T03:18:55.705Z,95317.00
2018-07-22T03:19:27.735Z,95311.00
2018-07-22T03:19:59.753Z,95314.00
2018-07-22T03:20:31.764Z,95314.00
2018-07-22T03:21:03.773Z,95317.00
2018-07-22T03:21:35.788Z,95319.00
2018-07-22T03:22:07.803Z,95318.00
2018-07-22T03:22:39.844Z,95322.00
2018-07-22T03:23:11.874Z,95317.00
2018-07-22T03:23:43.892Z,95315.00
2018-07-22T03:24:15.910Z,95320.00
2018-07-22T03:24:47.968Z,95324.00
2018-07-22T03:25:19.941Z,95326.00
2018-07-22T03:25:51.971Z,95324.00
2018-07-22T03:26:23.984Z,95323.00
2018-07-22T03:26:55.992Z,95322.00
2018-07-22T03:27:28.007Z,95318.00
2018-07-22T03:28:00.049Z,95320.00
2018-07-22T03:28:32.066Z,95323.00
2018-07-22T03:29:04.080Z,95326.00
2018-07-22T03:29:36.091Z,95323.00
2018-07-22T03:30:08.123Z,95326.00
2018-07-22T03:30:40.186Z,95323.00
2018-07-22T03:31:12.215Z,95326.00
2018-07-22T03:31:44.252Z,95325.00
2018-07-22T03:32:16.762Z,95327.00
2018-07-22T03:32:48.655Z,95326.00
2018-07-22T03:33:20.900Z,95322.00
2018-07-22T03:33:53.175Z,95330.00
2018-07-22T03:34:25.208Z,95326.00
2018-07-22T03:34:57.206Z,95324.00
2018-07-22T03:35:29.233Z,95323.00
2018-07-22T03:36:01.320Z,95327.00
2018-07-22T03:36:33.343Z,95327.00
2018-07-22T03:37:05.358Z,95329.00
2018-07-22T03:37:37.412Z,95321.00
2018-07-22T03:38:09.414Z,95324.00
2018-07-22T03:38:41.422Z,95323.00
2018-07-22T03:39:13.439Z,95324.00
2018-07-22T03:39:45.465Z,95322.00
2018-07-22T03:40:17.479Z,95328.00
2018-07-22T03:40:49.495Z,95326.00
2018-07-22T03:41:21.534Z,95330.00
2018-07-22T03:41:53.579Z,95332.00
2018-07-22T03:42:25.675Z,95335.00
2018-07-22T03:42:57.668Z,95329.00
2018-07-22T03:43:29.671Z,95333.00
2018-07-22T03:44:01.696Z,95335.00
2018-07-22T03:44:33.717Z,95333.00
2018-07-22T03:45:05.795Z,95335.00
2018-07-22T03:45:37.820Z,95336.00
2018-07-22T03:46:09.835Z,95335.00
2018-07-22T03:46:41.851Z,95337.00
2018-07-22T03:47:13.885Z,95333.00
2018-07-22T03:47:45.894Z,95334.00
2018-07-22T03:48:17.917Z,95336.00
2018-07-22T03:48:49.935Z,95336.00
2018-07-22T03:49:21.954Z,95339.00
2018-07-22T03:49:54.161Z,95337.00
2018-07-22T03:50:26.367Z,95339.00
2018-07-22T03:50:58.390Z,95340.00
2018-07-22T03:51:30.423Z,95336.00
2018-07-22T03:52:02.460Z,95341.00
2018-07-22T03:52:34.479Z,95340.00
2018-07-22T03:53:06.498Z,95338.00
2018-07-22T03:53:38.520Z,95341.00
2018-07-22T03:54:10.537Z,95339.00
2018-07-22T03:54:42.550Z,95346.00
2018-07-22T03:55:14.569Z,95342.00
2018-07-22T03:55:46.606Z,95342.00
2018-07-22T03:56:18.614Z,95344.00
2018-07-22T03:56:50.643Z,95343.00
2018-07-22T03:57:22.651Z,95346.00
2018-07-22T03:57:54.679Z,95348.00
2018-07-22T03:58:26.700Z,95348.00
2018-07-22T03:58:58.716Z,95344.00
2018-07-22T03:59:30.732Z,95350.00
2018-07-22T04:00:02.764Z,95355.00
2018-07-22T04:00:34.810Z,95349.00
2018-07-22T04:01:06.843Z,95349.00
2018-07-22T04:01:39.572Z,95351.00
2018-07-22T04:02:11.627Z,95352.00
2018-07-22T04:02:43.650Z,95350.00
2018-07-22T04:03:15.668Z,95345.00
2018-07-22T04:03:47.683Z,95349.00
2018-07-22T04:04:19.701Z,95349.00
2018-07-22T04:04:51.781Z,95350.00
2018-07-22T04:05:23.736Z,95343.00
2018-07-22T04:05:55.763Z,95348.00
2018-07-22T04:06:27.794Z,95347.00
2018-07-22T04:06:59.835Z,95350.00
2018-07-22T04:07:31.843Z,95351.00
2018-07-22T04:08:03.901Z,95352.00
2018-07-22T04:08:35.916Z,95351.00
2018-07-22T04:09:07.944Z,95352.00
2018-07-22T04:09:39.950Z,95355.00
2018-07-22T04:10:11.971Z,95349.00
2018-07-22T04:10:43.988Z,95347.00
2018-07-22T04:11:16.042Z,95351.00
2018-07-22T04:11:48.048Z,95354.00
2018-07-22T04:12:20.063Z,95352.00
2018-07-22T04:12:52.087Z,95359.00
2018-07-22T04:13:24.099Z,95359.00
2018-07-22T04:13:56.109Z,95357.00
2018-07-22T04:14:28.122Z,95354.00
2018-07-22T04:15:00.130Z,95359.00
2018-07-22T04:15:32.143Z,95362.00
2018-07-22T04:16:04.162Z,95355.00
2018-07-22T04:16:36.194Z,95356.00
2018-07-22T04:17:08.207Z,95353.00
2018-07-22T04:17:40.216Z,95355.00
2018-07-22T04:18:12.274Z,95358.00
2018-07-22T04:18:44.285Z,95359.00
2018-07-22T04:19:16.308Z,95363.00
2018-07-22T04:19:48.323Z,95365.00
2018-07-22T04:20:20.388Z,95359.00
2018-07-22T04:20:52.373Z,95362.00
2018-07-22T04:21:24.461Z,95361.00
2018-07-22T04:21:56.410Z,95357.00
2018-07-22T04:22:28.571Z,95359.00
2018-07-22T04:23:00.584Z,95358.00
2018-07-22T04:23:32.671Z,95362.00
2018-07-22T04:24:04.694Z,95360.00
2018-07-22T04:24:36.707Z,95363.00
2018-07-22T04:25:08.745Z,95359.00
2018-07-22T04:25:40.758Z,95359.00
2018-07-22T04:26:12.774Z,95360.00
2018-07-22T04:26:44.812Z,95358.00
2018-07-22T04:27:16.836Z,95359.00
2018-07-22T04:27:48.844Z,95356.00
2018-07-22T04:28:20.879Z,95359.00
2018-07-22T04:28:53.557Z,95364.00
2018-07-22T04:29:25.725Z,95357.00
2018-07-22T04:29:57.734Z,95354.00
2018-07-22T04:30:29.751Z,95356.00
2018-07-22T04:31:01.786Z,95356.00
2018-07-22T04:31:33.806Z,95351.00
2018-07-22T04:32:05.811Z,95354.00
2018-07-22T04:32:37.846Z,95353.00
2018-07-22T04:33:09.867Z,95352.00
2018-07-22T04:33:41.885Z,95352.00
2018-07-22T04:34:13.895Z,95356.00
2018-07-22T04:34:45.923Z,95358.00
2018-07-22T04:35:17.948Z,95358.00
2018-07-22T04:35:50.092Z,95355.00
2018-07-22T04:36:22.105Z,95355.00
2018-07-22T04:36:54.143Z,95355.00
2018-07-22T04:37:26.165Z,95361.00
2018-07-22T04:37:58.186Z,95355.00
2018-07-22T04:38:30.191Z,95356.00
2018-07-22T04:39:02.297Z,95362.00
2018-07-22T04:39:34.502Z,95363.00
2018-07-22T04:40:06.527Z,95365.00
2018-07-22T04:40:38.550Z,95364.00
2018-07-22T04:41:10.564Z,95366.00
2018-07-22T04:41:42.579Z,95359.00
2018-07-22T04:42:14.615Z,95365.00
2018-07-22T04:42:46.709Z,95368.00
2018-07-22T04:43:18.712Z,95363.00
2018-07-22T04:43:50.729Z,95370.00
2018-07-22T04:44:22.756Z,95365.00
2018-07-22T04:44:54.806Z,95363.00
2018-07-22T04:45:26.834Z,95367.00
2018-07-22T04:45:58.841Z,95363.00
2018-07-22T04:46:30.862Z,95363.00
2018-07-22T04:47:02.920Z,95365.00
2018-07-22T04:47:34.942Z,95362.00
2018-07-22T04:48:06.970Z,95364.00
2018-07-22T04:48:38.979Z,95364.00
2018-07-22T04:49:11.009Z,95365.00
2018-07-22T04:49:43.037Z,95365.00
2018-07-22T04:50:15.041Z,95364.00
2018-07-22T04:50:47.099Z,95359.00
2018-07-22T04:51:19.113Z,95357.00
2018-07-22T04:51:51.126Z,95365.00
2018-07-22T04:52:23.221Z,95364.00
2018-07-22T04:52:55.250Z,95366.00
2018-07-22T04:53:27.265Z,95362.00
2018-07-22T04:53:59.275Z,95365.00
2018-07-22T04:54:31.682Z,95367.00
2018-07-22T04:55:03.597Z,95373.00
2018-07-22T04:55:35.610Z,95368.00
2018-07-22T04:56:07.638Z,95372.00
2018-07-22T04:56:39.637Z,95371.00
2018-07-22T04:57:11.662Z,95373.00
2018-07-22T04:57:43.695Z,95376.00
2018-07-22T04:58:15.714Z,95377.00
2018-07-22T04:58:47.743Z,95374.00
2018-07-22T04:59:19.804Z,95374.00
2018-07-22T04:59:51.823Z,95375.00
2018-07-22T05:00:23.843Z,95379.00
2018-07-22T05:00:55.849Z,95374.00
2018-07-22T05:01:27.864Z,95376.00
2018-07-22T05:01:59.895Z,95377.00
2018-07-22T05:02:31.902Z,95376.00
2018-07-22T05:03:03.919Z,95379.00
2018-07-22T05:03:35.942Z,95379.00
2018-07-22T05:04:07.946Z,95375.00
2018-07-22T05:04:39.975Z,95380.00
2018-07-22T05:05:12.214Z,95378.00
2018-07-22T05:05:44.235Z,95379.00
2018-07-22T05:06:16.242Z,95375.00
2018-07-22T05:06:48.255Z,95376.00
2018-07-22T05:07:20.279Z,95375.00
2018-07-22T05:07:52.284Z,95375.00
2018-07-22T05:08:24.303Z,95376.00
2018-07-22T05:08:56.311Z,95373.00
2018-07-22T05:09:28.322Z,95376.00
2018-07-22T05:10:00.449Z,95376.00
2018-07-22T05:10:32.480Z,95379.00
2018-07-22T05:11:04.497Z,95376.00
2018-07-22T05:11:36.515Z,95379.00
2018-07-22T05:12:08.522Z,95379.00
2018-07-22T05:12:40.535Z,95381.00
2018-07-22T05:13:12.555Z,95379.00
2018-07-22T05:13:44.593Z,95377.00
2018-07-22T05:14:16.592Z,95378.00
2018-07-22T05:14:48.607Z,95378.00
2018-07-22T05:15:20.630Z,95384.00
2018-07-22T05:15:52.648Z,95386.00
2018-07-22T05:16:24.663Z,95384.00
2018-07-22T05:16:56.687Z,95386.00
2018-07-22T05:17:28.702Z,95379.00
2018-07-22T05:18:00.731Z,95380.00
2018-07-22T05:18:32.758Z,95383.00
2018-07-22T05:19:04.769Z,95380.00
2018-07-22T05:19:36.802Z,95379.00
2018-07-22T05:20:08.807Z,95380.00
2018-07-22T05:20:40.843Z,95383.00
2018-07-22T05:21:12.862Z,95385.00
2018-07-22T05:21:44.881Z,95380.00
2018-07-22T05:22:16.893Z,95387.00
2018-07-22T05:22:48.905Z,95381.00
2018-07-22T05:23:20.933Z,95381.00
2018-07-22T05:23:52.940Z,95385.00
2018-07-22T05:24:24.962Z,95384.00
2018-07-22T05:24:56.982Z,95389.00
2018-07-22T05:25:29.002Z,95386.00
2018-07-22T05:26:01.025Z,95386.00
2018-07-22T05:26:33.038Z,95386.00
2018-07-22T05:27:05.051Z,95385.00
2018-07-22T05:27:37.076Z,95388.00
2018-07-22T05:28:09.115Z,95387.00
2018-07-22T05:28:41.121Z,95389.00
2018-07-22T05:29:13.130Z,95389.00
2018-07-22T05:29:45.538Z,95391.00
2018-07-22T05:30:17.458Z,95389.00
2018-07-22T05:30:49.480Z,95390.00
2018-07-22T05:31:21.529Z,95387.00
2018-07-22T05:31:53.507Z,95389.00
2018-07-22T05:32:25.522Z,95385.00
2018-07-22T05:32:57.538Z,95388.00
2018-07-22T05:33:29.543Z,95388.00
2018-07-22T05:34:01.634Z,95390.00
2018-07-22T05:34:33.658Z,95389.00
2018-07-22T05:35:05.677Z,95389.00
2018-07-22T05:35:37.701Z,95388.00
2018-07-22T05:36:09.737Z,95385.00
2018-07-22T05:36:41.805Z,95386.00
2018-07-22T05:37:13.818Z,95388.00
2018-07-22T05:37:45.833Z,95390.00
2018-07-22T05:38:17.882Z,95392.00
2018-07-22T05:38:49.898Z,95388.00
2018-07-22T05:39:21.923Z,95393.00
2018-07-22T05:39:53.938Z,95392.00
2018-07-22T05:40:25.978Z,95397.00
2018-07-22T05:40:58.002Z,95393.00
2018-07-22T05:41:30.013Z,95395.00
2018-07-22T05:42:02.057Z,95392.00
2018-07-22T05:42:34.034Z,95393.00
2018-07-22T05:43:06.052Z,95394.00
2018-07-22T05:43:38.095Z,95394.00
2018-07-22T05:44:10.101Z,95396.00
2018-07-22T05:44:42.131Z,95397.00
2018-07-22T05:45:14.155Z,95395.00
2018-07-22T05:45:46.168Z,95396.00
2018-07-22T05:46:18.187Z,95396.00
2018-07-22T05:46:50.189Z,95396.00
2018-07-22T05:47:22.198Z,95397.00
2018-07-22T05:47:54.217Z,95398.00
2018-07-22T05:48:26.234Z,95398.00
2018-07-22T05:48:58.253Z,95395.00
2018-07-22T05:49:30.276Z,95399.00
2018-07-22T05:50:02.283Z,95400.00
2018-07-22T05:50:34.297Z,95406.00
2018-07-22T05:51:06.305Z,95401.00
2018-07-22T05:51:38.330Z,95406.00
2018-07-22T05:52:10.338Z,95409.00
2018-07-22T05:52:42.351Z,95404.00
2018-07-22T05:53:14.367Z,95405.00
2018-07-22T05:53:46.412Z,95407.00
2018-07-22T05:54:18.438Z,95405.00
2018-07-22T05:54:50.457Z,95401.00
2018-07-22T05:55:22.457Z,95406.00
2018-07-22T05:55:54.489Z,95404.00
2018-07-22T05:56:26.494Z,95409.00
2018-07-22T05:56:58.515Z,95406.00
2018-07-22T05:57:30.628Z,95408.00
2018-07-22T05:58:02.647Z,95404.00
2018-07-22T05:58:34.654Z,95407.00
2018-07-22T05:59:06.674Z,95406.00
2018-07-22T05:59:38.691Z,95411.00
2018-07-22T06:00:10.702Z,95406.00
2018-07-22T06:00:42.734Z,95409.00
2018-07-22T06:01:14.734Z,95407.00
2018-07-22T06:01:46.738Z,95410.00
2018-07-22T06:02:18.789Z,95405.00
2018-07-22T06:02:50.782Z,95409.00
2018-07-22T06:03:22.797Z,95411.00
2018-07-22T06:03:54.821Z,95412.00
2018-07-22T06:04:26.837Z,95411.00
2018-07-22T06:04:58.860Z,95411.00
2018-07-22T06:05:30.868Z,95408.00
2018-07-22T06:06:02.880Z,95414.00
2018-07-22T06:06:34.991Z,95414.00
2018-07-22T06:07:06.974Z,95413.00
2018-07-22T06:07:38.990Z,95414.00
2018-07-22T06:08:11.008Z,95414.00
2018-07-22T06:08:43.040Z,95418.00
2018-07-22T06:09:15.055Z,95413.00
2018-07-22T06:09:47.071Z,95418.00
2018-07-22T06:10:19.085Z,95417.00
2018-07-22T06:10:51.105Z,95419.00
2018-07-22T06:11:23.123Z,95419.00
2018-07-22T06:11:55.158Z,95420.00
2018-07-22T06:12:27.189Z,95417.00
2018-07-22T06:12:59.227Z,95425.00
2018-07-22T06:13:31.252Z,95416.00
2018-07-22T06:14:03.266Z,95420.00
2018-07-22T06:14:35.285Z,95421.00
2018-07-22T06:15:07.321Z,95419.00
2018-07-22T06:15:39.413Z,95419.00
2018-07-22T06:16:11.435Z,95418.00
2018-07-22T06:16:43.485Z,95416.00